createdAt,value
2019-03-13T00:01:02.717Z,6.30
2019-03-13T00:03:31.625Z,6.20
2019-03-13T00:06:00.558Z,6.20
2019-03-13T00:08:29.415Z,6.10
2019-03-13T00:10:58.489Z,6.10
2019-03-13T00:13:27.277Z,6.10
2019-03-13T00:15:56.255Z,6.10
2019-03-13T00:18:25.196Z,6.10
2019-03-13T00:20:54.080Z,6.20
2019-03-13T00:23:22.882Z,6.10
2019-03-13T00:25:51.717Z,6.10
2019-03-13T00:28:20.773Z,6.20
2019-03-13T00:30:49.990Z,6.10
2019-03-13T00:33:18.893Z,6.10
2019-03-13T00:35:47.788Z,6.10
2019-03-13T00:38:16.594Z,6.10
2019-03-13T00:40:45.554Z,6.10
2019-03-13T00:43:14.451Z,6.10
2019-03-13T00:45:43.541Z,6.00
2019-03-13T00:48:12.380Z,6.00
2019-03-13T00:50:41.316Z,6.00
2019-03-13T00:53:10.181Z,6.00
2019-03-13T00:55:39.012Z,6.00
2019-03-13T00:58:07.976Z,6.00
2019-03-13T01:01:02.158Z,6.00
2019-03-13T01:03:41.246Z,6.00
2019-03-13T01:06:14.541Z,5.90
2019-03-13T01:08:43.352Z,5.90
2019-03-13T01:11:12.155Z,5.80
2019-03-13T01:13:41.063Z,5.80
2019-03-13T01:16:09.853Z,5.70
2019-03-13T01:18:38.913Z,5.70
2019-03-13T01:21:07.693Z,5.70
2019-03-13T01:23:36.513Z,5.70
2019-03-13T01:26:05.552Z,5.60
2019-03-13T01:28:34.693Z,5.60
2019-03-13T01:31:18.709Z,5.60
2019-03-13T01:33:47.581Z,5.60
2019-03-13T01:36:16.537Z,5.60
2019-03-13T01:38:45.400Z,5.60
2019-03-13T01:41:14.218Z,5.60
2019-03-13T01:43:43.076Z,5.60
2019-03-13T01:46:12.090Z,5.60
2019-03-13T01:48:40.908Z,5.60
2019-03-13T01:51:09.769Z,5.60
2019-03-13T01:56:06.988Z,5.60
2019-03-13T01:58:35.854Z,5.70
2019-03-13T02:01:05.061Z,5.70
2019-03-13T02:03:34.008Z,5.80
2019-03-13T02:06:02.861Z,5.70
2019-03-13T02:08:31.777Z,5.80
2019-03-13T02:11:00.648Z,5.90
2019-03-13T02:13:29.493Z,5.90
2019-03-13T02:15:58.359Z,5.90
2019-03-13T02:18:27.171Z,5.90
2019-03-13T02:20:56.152Z,5.90
2019-03-13T02:23:24.988Z,5.90
2019-03-13T02:25:54.178Z,5.90
2019-03-13T02:28:22.992Z,6.00
2019-03-13T02:30:52.143Z,6.00
2019-03-13T02:33:20.954Z,6.00
2019-03-13T02:35:49.849Z,6.00
2019-03-13T02:38:18.666Z,6.00
2019-03-13T02:40:47.525Z,6.00
2019-03-13T02:43:16.424Z,6.00
2019-03-13T02:45:45.325Z,6.00
2019-03-13T02:48:14.225Z,6.00
2019-03-13T02:50:43.169Z,5.90
2019-03-13T02:53:12.075Z,6.00
2019-03-13T02:55:40.943Z,6.00
2019-03-13T02:58:09.769Z,6.00
2019-03-13T03:01:03.786Z,6.00
2019-03-13T03:03:38.452Z,6.00
2019-03-13T03:06:07.245Z,5.90
2019-03-13T03:08:36.246Z,5.90
2019-03-13T03:11:05.290Z,6.00
2019-03-13T03:13:34.135Z,6.00
2019-03-13T03:16:03.012Z,6.00
2019-03-13T03:18:31.807Z,6.00
2019-03-13T03:21:00.664Z,5.90
2019-03-13T03:23:29.487Z,5.90
2019-03-13T03:25:58.503Z,5.90
2019-03-13T03:28:27.407Z,5.90
2019-03-13T03:30:56.389Z,5.90
2019-03-13T03:33:25.262Z,5.90
2019-03-13T03:35:54.084Z,5.90
2019-03-13T03:38:22.895Z,5.90
2019-03-13T03:40:51.708Z,5.90
2019-03-13T03:43:20.506Z,5.80
2019-03-13T03:45:49.369Z,5.90
2019-03-13T03:48:18.176Z,6.00
2019-03-13T03:50:47.038Z,6.00
2019-03-13T03:53:15.910Z,5.90
2019-03-13T03:55:44.854Z,6.10
2019-03-13T03:58:13.809Z,6.10
2019-03-13T04:00:42.631Z,6.20
2019-03-13T04:03:11.482Z,6.20
2019-03-13T04:05:40.433Z,6.20
2019-03-13T04:08:09.385Z,6.30
2019-03-13T04:10:38.388Z,6.30
2019-03-13T04:13:07.240Z,6.40
2019-03-13T04:15:36.238Z,6.40
2019-03-13T04:18:05.112Z,6.50
2019-03-13T04:20:34.017Z,6.40
2019-03-13T04:23:02.798Z,6.40
2019-03-13T04:25:33.449Z,6.40
2019-03-13T04:28:02.613Z,6.50
2019-03-13T04:30:31.409Z,6.50
2019-03-13T04:33:00.638Z,6.60
2019-03-13T04:35:29.593Z,6.60
2019-03-13T04:37:58.541Z,6.70
2019-03-13T04:40:27.489Z,6.60
2019-03-13T04:42:56.302Z,6.60
2019-03-13T04:45:25.095Z,6.60
2019-03-13T04:47:53.896Z,6.60
2019-03-13T04:50:22.812Z,6.70
2019-03-13T04:52:51.610Z,6.60
2019-03-13T04:55:20.560Z,6.70
2019-03-13T04:57:49.462Z,6.70
2019-03-13T05:00:18.481Z,6.70
2019-03-13T05:02:47.461Z,6.70
2019-03-13T05:05:42.263Z,6.60
2019-03-13T05:08:17.286Z,6.60
2019-03-13T05:10:46.166Z,6.60
2019-03-13T05:13:15.045Z,6.60
2019-03-13T05:15:43.996Z,6.60
2019-03-13T05:18:12.791Z,6.60
2019-03-13T05:20:41.820Z,6.60
2019-03-13T05:23:10.714Z,6.70
2019-03-13T05:25:39.595Z,6.70
2019-03-13T05:28:08.395Z,6.70
2019-03-13T05:30:37.276Z,6.80
2019-03-13T05:33:06.904Z,6.80
2019-03-13T05:35:35.697Z,6.80
2019-03-13T05:38:04.553Z,6.70
2019-03-13T05:40:33.495Z,6.70
2019-03-13T05:43:02.280Z,6.80
2019-03-13T05:45:31.105Z,6.90
2019-03-13T05:47:59.981Z,6.90
2019-03-13T05:50:31.404Z,6.90
2019-03-13T05:52:59.347Z,6.90
2019-03-13T05:55:28.236Z,6.90
2019-03-13T05:57:57.055Z,7.00
2019-03-13T06:00:28.146Z,7.00
2019-03-13T06:02:57.095Z,6.90
2019-03-13T06:05:26.772Z,6.90
2019-03-13T06:07:55.704Z,6.80
2019-03-13T06:10:24.569Z,6.80
2019-03-13T06:12:53.400Z,6.80
2019-03-13T06:15:22.220Z,6.80
2019-03-13T06:17:51.064Z,6.80
2019-03-13T06:20:20.147Z,6.70
2019-03-13T06:22:48.932Z,6.70
2019-03-13T06:25:17.872Z,6.60
2019-03-13T06:27:46.930Z,6.60
2019-03-13T06:30:15.880Z,6.70
2019-03-13T06:32:44.657Z,6.60
2019-03-13T06:35:33.072Z,6.60
2019-03-13T06:38:01.997Z,6.70
2019-03-13T06:40:32.014Z,6.60
2019-03-13T06:43:01.112Z,6.60
2019-03-13T06:45:47.377Z,6.70
2019-03-13T06:48:19.441Z,6.70
2019-03-13T06:50:48.228Z,6.60
2019-03-13T06:53:19.264Z,6.70
2019-03-13T06:55:48.151Z,6.70
2019-03-13T06:58:18.713Z,6.70
2019-03-13T07:01:06.687Z,6.70
2019-03-13T07:03:41.395Z,6.70
2019-03-13T07:06:28.011Z,6.70
2019-03-13T07:09:14.827Z,6.80
2019-03-13T07:12:18.043Z,6.80
2019-03-13T07:14:56.411Z,6.80
2019-03-13T07:17:38.652Z,6.80
2019-03-13T07:20:25.200Z,6.80
2019-03-13T07:23:19.036Z,6.80
2019-03-13T07:26:13.364Z,6.80
2019-03-13T07:29:12.174Z,6.70
2019-03-13T07:32:00.000Z,6.70
2019-03-13T07:34:46.548Z,6.80
2019-03-13T07:37:30.519Z,6.80
2019-03-13T07:40:27.671Z,6.80
2019-03-13T07:43:12.472Z,6.80
2019-03-13T07:46:00.736Z,6.80
2019-03-13T07:48:43.275Z,6.80
2019-03-13T07:51:21.538Z,6.70
2019-03-13T07:54:00.320Z,6.70
2019-03-13T07:57:06.551Z,6.70
2019-03-13T07:59:52.784Z,6.60
2019-03-13T08:02:27.368Z,6.60
2019-03-13T08:05:02.693Z,6.60
2019-03-13T08:07:46.979Z,6.70
2019-03-13T08:11:12.367Z,6.70
2019-03-13T08:14:03.092Z,6.70
2019-03-13T08:16:53.961Z,6.70
2019-03-13T08:19:31.157Z,6.70
2019-03-13T08:22:17.982Z,6.70
2019-03-13T08:25:07.801Z,6.80
2019-03-13T08:28:06.648Z,6.80
2019-03-13T08:30:41.838Z,6.80
2019-03-13T08:33:31.349Z,6.90
2019-03-13T08:36:22.493Z,6.90
2019-03-13T08:38:57.821Z,6.90
2019-03-13T08:41:44.398Z,6.90
2019-03-13T08:44:31.164Z,7.00
2019-03-13T08:47:12.435Z,7.10
2019-03-13T08:50:12.287Z,7.10
2019-03-13T08:52:48.959Z,7.20
2019-03-13T08:55:28.640Z,7.30
2019-03-13T08:58:20.666Z,7.40
2019-03-13T09:01:06.007Z,7.40
2019-03-13T09:03:55.488Z,7.40
2019-03-13T09:06:37.226Z,7.40
2019-03-13T09:09:14.464Z,7.40
2019-03-13T09:12:08.421Z,7.40
2019-03-13T09:14:51.542Z,7.40
2019-03-13T09:17:42.805Z,7.40
2019-03-13T09:20:19.430Z,7.50
2019-03-13T09:22:57.917Z,7.50
2019-03-13T09:25:54.985Z,7.50
2019-03-13T09:28:40.936Z,7.50
2019-03-13T09:31:27.685Z,7.60
2019-03-13T09:34:21.556Z,7.60
2019-03-13T09:36:59.561Z,7.60
2019-03-13T09:39:36.710Z,7.70
2019-03-13T09:42:23.457Z,7.70
2019-03-13T09:45:11.412Z,7.70
2019-03-13T09:47:58.213Z,7.70
2019-03-13T09:50:45.258Z,7.70
2019-03-13T09:53:31.473Z,7.70
2019-03-13T09:56:19.557Z,7.70
2019-03-13T10:02:01.156Z,7.60
2019-03-13T10:04:47.821Z,7.60
2019-03-13T10:07:24.719Z,7.50
2019-03-13T10:10:24.866Z,7.50
2019-03-13T10:13:11.674Z,7.40
2019-03-13T10:21:23.921Z,7.30
2019-03-13T10:24:23.860Z,7.40
2019-03-13T10:27:00.295Z,7.40
2019-03-13T10:29:43.088Z,7.40
2019-03-13T10:32:31.063Z,7.40
2019-03-13T10:35:15.575Z,7.40
2019-03-13T10:38:14.266Z,7.40
2019-03-13T10:41:06.527Z,7.30
2019-03-13T10:44:02.763Z,7.20
2019-03-13T10:46:53.311Z,7.20
2019-03-13T10:49:42.166Z,7.20
2019-03-13T10:52:29.210Z,7.10
2019-03-13T10:55:24.497Z,7.10
2019-03-13T10:58:21.803Z,7.10
2019-03-13T11:01:13.246Z,7.10
2019-03-13T11:04:22.585Z,7.10
2019-03-13T11:07:13.676Z,7.10
2019-03-13T11:09:58.555Z,7.20
2019-03-13T11:12:52.376Z,7.20
2019-03-13T11:15:34.564Z,7.30
2019-03-13T11:18:29.977Z,7.30
2019-03-13T11:21:17.714Z,7.30
2019-03-13T11:24:08.745Z,7.30
2019-03-13T11:26:59.955Z,7.30
2019-03-13T11:29:34.776Z,7.30
2019-03-13T11:32:15.010Z,7.30
2019-03-13T11:35:11.193Z,7.30
2019-03-13T11:38:11.932Z,7.30
2019-03-13T11:40:59.816Z,7.40
2019-03-13T11:43:44.193Z,7.50
2019-03-13T11:46:22.366Z,7.60
2019-03-13T11:49:10.513Z,7.70
2019-03-13T11:51:52.607Z,7.70
2019-03-13T11:54:39.562Z,7.80
2019-03-13T11:57:23.284Z,7.80
2019-03-13T12:00:10.133Z,7.80
2019-03-13T12:02:57.912Z,7.70
2019-03-13T12:05:44.698Z,7.60
2019-03-13T12:08:30.301Z,7.70
2019-03-13T12:11:11.541Z,7.70
2019-03-13T12:14:05.769Z,7.70
2019-03-13T12:17:06.130Z,7.70
2019-03-13T12:19:56.882Z,7.70
2019-03-13T12:22:32.481Z,7.70
2019-03-13T12:25:18.709Z,7.60
2019-03-13T12:28:09.665Z,7.60
2019-03-13T12:30:56.618Z,7.60
2019-03-13T12:33:46.525Z,7.60
2019-03-13T12:36:49.751Z,7.60
2019-03-13T12:39:28.846Z,7.60
2019-03-13T12:42:29.040Z,7.50
2019-03-13T12:45:29.091Z,7.60
2019-03-13T12:48:17.006Z,7.60
2019-03-13T12:51:11.663Z,7.50
2019-03-13T12:54:08.920Z,7.50
2019-03-13T12:56:55.385Z,7.40
2019-03-13T12:59:49.184Z,7.40
2019-03-13T13:02:26.115Z,7.40
2019-03-13T13:05:12.563Z,7.40
2019-03-13T13:07:53.199Z,7.30
2019-03-13T13:10:35.976Z,7.30
2019-03-13T13:13:16.484Z,7.30
2019-03-13T13:16:03.091Z,7.30
2019-03-13T13:19:00.369Z,7.30
2019-03-13T13:21:29.164Z,7.40
2019-03-13T13:23:59.459Z,7.50
2019-03-13T13:26:28.269Z,7.50
2019-03-13T13:28:57.295Z,7.60
2019-03-13T13:31:26.272Z,7.70
2019-03-13T13:33:55.246Z,7.80
2019-03-13T13:36:26.664Z,7.90
2019-03-13T13:38:54.643Z,8.00
2019-03-13T13:41:23.423Z,8.20
2019-03-13T13:43:52.257Z,8.40
2019-03-13T13:46:26.492Z,8.50
2019-03-13T13:48:55.266Z,8.70
2019-03-13T13:51:24.210Z,8.70
2019-03-13T13:53:55.591Z,8.70
2019-03-13T13:56:23.844Z,8.80
2019-03-13T13:58:52.659Z,8.70
2019-03-13T14:01:21.464Z,8.70
2019-03-13T14:03:50.601Z,8.70
2019-03-13T14:06:19.423Z,8.60
2019-03-13T14:08:48.257Z,8.50
2019-03-13T14:11:17.125Z,8.40
2019-03-13T14:13:45.939Z,8.20
2019-03-13T14:16:14.932Z,8.00
2019-03-13T14:18:43.802Z,7.80
2019-03-13T14:21:12.604Z,7.90
2019-03-13T14:23:41.449Z,8.00
2019-03-13T14:26:10.282Z,8.00
2019-03-13T14:28:39.310Z,8.10
2019-03-13T14:31:08.244Z,8.10
2019-03-13T14:33:37.134Z,8.10
2019-03-13T14:36:05.956Z,8.20
2019-03-13T14:38:34.887Z,8.30
2019-03-13T14:41:03.825Z,8.30
2019-03-13T14:43:32.845Z,8.30
2019-03-13T14:46:01.663Z,8.30
2019-03-13T14:48:30.555Z,8.40
2019-03-13T14:50:59.462Z,8.40
2019-03-13T14:53:28.288Z,8.20
2019-03-13T14:55:57.116Z,8.10
2019-03-13T14:58:26.125Z,8.10
2019-03-13T15:00:54.969Z,8.10
2019-03-13T15:03:23.780Z,8.00
2019-03-13T15:05:52.904Z,8.10
2019-03-13T15:08:21.692Z,8.20
2019-03-13T15:10:50.485Z,8.40
2019-03-13T15:13:19.405Z,8.40
2019-03-13T15:15:48.453Z,8.50
2019-03-13T15:18:17.303Z,8.60
2019-03-13T15:20:46.121Z,8.70
2019-03-13T15:23:15.003Z,8.80
2019-03-13T15:25:43.871Z,8.80
2019-03-13T15:28:12.759Z,8.80
2019-03-13T15:30:41.572Z,8.80
2019-03-13T15:33:10.485Z,8.70
2019-03-13T15:35:39.307Z,8.80
2019-03-13T15:38:08.252Z,8.80
2019-03-13T15:40:37.038Z,8.80
2019-03-13T15:43:05.983Z,8.90
2019-03-13T15:45:34.968Z,8.80
2019-03-13T15:48:03.872Z,8.70
2019-03-13T15:50:35.163Z,8.70
2019-03-13T15:53:04.071Z,8.70
2019-03-13T15:55:33.033Z,8.80
2019-03-13T15:58:01.906Z,8.80
2019-03-13T16:00:30.908Z,8.80
2019-03-13T16:02:59.892Z,8.80
2019-03-13T16:05:28.778Z,8.70
2019-03-13T16:07:57.862Z,8.80
2019-03-13T16:10:26.724Z,8.80
2019-03-13T16:12:58.291Z,8.80
2019-03-13T16:15:28.550Z,8.80
2019-03-13T16:17:58.137Z,8.90
2019-03-13T16:20:31.784Z,9.00
2019-03-13T16:23:00.223Z,9.00
2019-03-13T16:25:29.209Z,9.00
2019-03-13T16:27:58.178Z,9.00
2019-03-13T16:30:32.645Z,8.90
2019-03-13T16:33:01.599Z,8.80
2019-03-13T16:35:30.533Z,8.80
2019-03-13T16:37:59.454Z,8.80
2019-03-13T16:40:31.531Z,8.90
2019-03-13T16:42:59.106Z,8.90
2019-03-13T16:45:28.257Z,8.90
2019-03-13T16:48:18.394Z,8.90
2019-03-13T16:50:47.238Z,9.00
2019-03-13T16:53:16.108Z,8.90
2019-03-13T16:55:45.004Z,8.90
2019-03-13T16:58:13.799Z,8.90
2019-03-13T17:00:42.600Z,8.90
2019-03-13T17:03:11.481Z,8.80
2019-03-13T17:05:40.267Z,8.90
2019-03-13T17:08:09.265Z,8.90
2019-03-13T17:10:38.126Z,8.70
2019-03-13T17:13:07.017Z,8.70
2019-03-13T17:15:35.995Z,8.70
2019-03-13T17:18:05.440Z,8.70
2019-03-13T17:20:34.351Z,8.70
2019-03-13T17:23:03.310Z,8.70
2019-03-13T17:25:32.194Z,8.60
2019-03-13T17:28:01.041Z,8.60
2019-03-13T17:30:29.985Z,8.60
2019-03-13T17:32:59.078Z,8.70
2019-03-13T17:35:28.017Z,8.70
2019-03-13T17:37:57.045Z,8.70
2019-03-13T17:40:26.118Z,8.60
2019-03-13T17:42:55.145Z,8.60
2019-03-13T17:45:24.532Z,8.50
2019-03-13T17:47:53.737Z,8.50
2019-03-13T17:50:22.808Z,8.50
2019-03-13T17:52:51.783Z,8.40
2019-03-13T17:55:20.710Z,8.40
2019-03-13T17:57:49.505Z,8.30
2019-03-13T18:00:20.646Z,8.20
2019-03-13T18:02:49.669Z,8.20
2019-03-13T18:05:18.643Z,8.10
2019-03-13T18:07:47.513Z,8.10
2019-03-13T18:10:17.781Z,8.10
2019-03-13T18:12:46.662Z,8.00
2019-03-13T18:15:15.863Z,8.00
2019-03-13T18:17:44.837Z,8.00
2019-03-13T18:20:15.387Z,7.90
2019-03-13T18:22:44.363Z,7.80
2019-03-13T18:25:13.312Z,7.80
2019-03-13T18:27:42.403Z,7.70
2019-03-13T18:30:14.365Z,7.70
2019-03-13T18:32:43.323Z,7.60
2019-03-13T18:35:12.588Z,7.60
2019-03-13T18:37:41.491Z,7.50
2019-03-13T18:40:10.633Z,7.60
2019-03-13T18:42:39.541Z,7.70
2019-03-13T18:45:11.709Z,7.60
2019-03-13T18:47:40.704Z,7.50
2019-03-13T18:50:10.624Z,7.50
2019-03-13T18:52:39.528Z,7.50
2019-03-13T18:55:09.639Z,7.50
2019-03-13T18:57:38.458Z,7.40
2019-03-13T19:00:10.875Z,7.40
2019-03-13T19:02:39.860Z,7.30
2019-03-13T19:05:10.167Z,7.30
2019-03-13T19:07:39.057Z,7.30
2019-03-13T19:10:08.844Z,7.30
2019-03-13T19:12:37.880Z,7.30
2019-03-13T19:15:10.969Z,7.20
2019-03-13T19:17:39.933Z,7.20
2019-03-13T19:20:11.970Z,7.30
2019-03-13T19:22:40.309Z,7.30
2019-03-13T19:25:09.876Z,7.30
2019-03-13T19:27:38.828Z,7.30
2019-03-13T19:30:11.661Z,7.20
2019-03-13T19:32:40.526Z,7.20
2019-03-13T19:35:09.476Z,7.20
2019-03-13T19:37:38.604Z,7.20
2019-03-13T19:40:08.402Z,7.20
2019-03-13T19:42:37.301Z,7.20
2019-03-13T19:45:10.094Z,7.20
2019-03-13T19:47:37.781Z,7.20
2019-03-13T19:50:06.961Z,7.20
2019-03-13T19:52:35.909Z,7.20
2019-03-13T19:55:05.993Z,7.20
2019-03-13T19:57:34.797Z,7.20
2019-03-13T20:00:03.797Z,7.20
2019-03-13T20:02:32.740Z,7.20
2019-03-13T20:05:03.273Z,7.20
2019-03-13T20:07:32.233Z,7.10
2019-03-13T20:10:01.305Z,7.10
2019-03-13T20:12:30.271Z,7.10
2019-03-13T20:14:59.081Z,7.10
2019-03-13T20:17:27.990Z,7.00
2019-03-13T20:19:57.190Z,6.90
2019-03-13T20:22:26.261Z,6.90
2019-03-13T20:24:55.125Z,6.90
2019-03-13T20:27:23.929Z,6.80
2019-03-13T20:29:52.762Z,6.80
2019-03-13T20:32:21.569Z,6.90
2019-03-13T20:34:50.477Z,6.80
2019-03-13T20:37:19.348Z,6.70
2019-03-13T20:39:48.438Z,6.70
2019-03-13T20:42:17.412Z,6.70
2019-03-13T20:44:46.190Z,6.70
2019-03-13T20:47:15.099Z,6.80
2019-03-13T20:49:43.869Z,6.80
2019-03-13T20:52:12.799Z,6.80
2019-03-13T20:54:41.606Z,6.90
2019-03-13T20:57:10.512Z,7.00
2019-03-13T20:59:39.306Z,7.00
2019-03-13T21:02:08.286Z,7.10
2019-03-13T21:04:37.097Z,7.10
2019-03-13T21:07:05.892Z,7.10
2019-03-13T21:09:34.696Z,7.10
2019-03-13T21:12:03.488Z,7.10
2019-03-13T21:14:32.275Z,7.20
2019-03-13T21:17:01.157Z,7.20
2019-03-13T21:19:29.974Z,7.10
2019-03-13T21:21:58.778Z,7.10
2019-03-13T21:24:27.601Z,7.00
2019-03-13T21:26:56.494Z,7.00
2019-03-13T21:29:25.353Z,7.00
2019-03-13T21:31:54.242Z,7.10
2019-03-13T21:34:23.067Z,7.00
2019-03-13T21:36:51.939Z,7.00
2019-03-13T21:39:21.065Z,7.10
2019-03-13T21:41:50.277Z,7.00
2019-03-13T21:44:19.087Z,7.00
2019-03-13T21:46:51.928Z,7.00
2019-03-13T21:49:20.812Z,7.00
2019-03-13T21:51:49.680Z,7.10
2019-03-13T21:54:18.477Z,7.20
2019-03-13T21:56:47.518Z,7.20
2019-03-13T21:59:16.393Z,7.20
2019-03-13T22:01:45.225Z,7.20
2019-03-13T22:04:23.697Z,7.30
2019-03-13T22:06:44.661Z,7.30
2019-03-13T22:09:13.574Z,7.30
2019-03-13T22:11:42.445Z,7.40
2019-03-13T22:14:11.337Z,7.40
2019-03-13T22:16:40.233Z,7.40
2019-03-13T22:19:09.176Z,7.50
2019-03-13T22:21:38.070Z,7.50
2019-03-13T22:24:06.942Z,7.50
2019-03-13T22:26:35.764Z,7.50
2019-03-13T22:29:04.961Z,7.50
2019-03-13T22:31:33.765Z,7.50
2019-03-13T22:34:02.672Z,7.60
2019-03-13T22:36:31.537Z,7.60
2019-03-13T22:39:00.360Z,7.60
2019-03-13T22:41:29.151Z,7.60
2019-03-13T22:43:58.104Z,7.60
2019-03-13T22:46:26.944Z,7.70
2019-03-13T22:48:58.348Z,7.70
2019-03-13T22:51:26.245Z,7.80
2019-03-13T22:53:55.068Z,7.80
2019-03-13T22:56:24.005Z,7.80
2019-03-13T22:58:52.843Z,7.80
2019-03-13T23:01:22.145Z,7.80
2019-03-13T23:03:51.421Z,7.80
2019-03-13T23:06:20.256Z,7.80
2019-03-13T23:08:49.196Z,7.80
2019-03-13T23:11:18.155Z,7.80
2019-03-13T23:13:47.069Z,7.80
2019-03-13T23:16:15.996Z,7.80
2019-03-13T23:18:44.764Z,7.80
2019-03-13T23:21:14.001Z,7.80
2019-03-13T23:23:42.958Z,7.80
2019-03-13T23:26:11.812Z,7.90
2019-03-13T23:28:40.633Z,7.90
2019-03-13T23:31:09.709Z,7.90
2019-03-13T23:33:38.567Z,7.90
2019-03-13T23:36:08.618Z,7.90
2019-03-13T23:38:37.517Z,7.90
2019-03-13T23:41:06.301Z,7.90
2019-03-13T23:43:35.214Z,7.90
2019-03-13T23:46:04.757Z,7.90
2019-03-13T23:48:33.727Z,7.90
2019-03-13T23:51:02.521Z,7.90
2019-03-13T23:53:31.302Z,7.90
2019-03-13T23:56:00.127Z,7.90
2019-03-13T23:58:28.969Z,7.90
